sensor_id;sensor_type;location;lat;lon;timestamp;P1;durP1;ratioP1;P2;durP2;ratioP2
78116;SDS011;69042;59.120;37.904;2023-05-29T00:00:22;23.67;;;6.63;;
78116;SDS011;69042;59.120;37.904;2023-05-29T00:02:49;22.55;;;6.75;;
78116;SDS011;69042;59.120;37.904;2023-05-29T00:05:16;21.35;;;6.65;;
78116;SDS011;69042;59.120;37.904;2023-05-29T00:07:43;20.38;;;6.20;;
78116;SDS011;69042;59.120;37.904;2023-05-29T00:10:09;24.20;;;6.30;;
78116;SDS011;69042;59.120;37.904;2023-05-29T00:12:37;17.30;;;4.93;;
78116;SDS011;69042;59.120;37.904;2023-05-29T00:15:04;18.48;;;4.45;;
78116;SDS011;69042;59.120;37.904;2023-05-29T00:17:31;16.35;;;5.03;;
78116;SDS011;69042;59.120;37.904;2023-05-29T00:19:58;15.05;;;4.13;;
78116;SDS011;69042;59.120;37.904;2023-05-29T00:22:25;13.02;;;3.67;;
78116;SDS011;69042;59.120;37.904;2023-05-29T00:24:53;15.55;;;4.00;;
78116;SDS011;69042;59.120;37.904;2023-05-29T00:27:19;21.70;;;5.13;;
78116;SDS011;69042;59.120;37.904;2023-05-29T00:29:46;30.15;;;6.05;;
78116;SDS011;69042;59.120;37.904;2023-05-29T00:32:12;20.77;;;5.47;;
78116;SDS011;69042;59.120;37.904;2023-05-29T00:34:38;30.02;;;5.95;;
78116;SDS011;69042;59.120;37.904;2023-05-29T00:37:04;25.35;;;5.40;;
78116;SDS011;69042;59.120;37.904;2023-05-29T00:39:31;14.73;;;4.25;;
78116;SDS011;69042;59.120;37.904;2023-05-29T00:41:57;19.00;;;4.63;;
78116;SDS011;69042;59.120;37.904;2023-05-29T00:44:23;19.30;;;4.68;;
78116;SDS011;69042;59.120;37.904;2023-05-29T00:46:51;17.90;;;4.45;;
78116;SDS011;69042;59.120;37.904;2023-05-29T00:52:34;18.02;;;4.70;;
78116;SDS011;69042;59.120;37.904;2023-05-29T00:55:01;18.73;;;4.90;;
78116;SDS011;69042;59.120;37.904;2023-05-29T00:57:27;22.17;;;4.90;;
78116;SDS011;69042;59.120;37.904;2023-05-29T00:59:54;24.38;;;5.72;;
78116;SDS011;69042;59.120;37.904;2023-05-29T01:02:21;20.52;;;5.47;;
78116;SDS011;69042;59.120;37.904;2023-05-29T01:04:48;19.00;;;6.03;;
78116;SDS011;69042;59.120;37.904;2023-05-29T01:07:14;17.33;;;5.38;;
78116;SDS011;69042;59.120;37.904;2023-05-29T01:09:41;19.35;;;6.18;;
78116;SDS011;69042;59.120;37.904;2023-05-29T01:20:43;19.45;;;6.28;;
78116;SDS011;69042;59.120;37.904;2023-05-29T01:26:07;18.55;;;6.20;;
78116;SDS011;69042;59.120;37.904;2023-05-29T01:28:41;19.60;;;6.22;;
78116;SDS011;69042;59.120;37.904;2023-05-29T01:31:12;20.48;;;5.72;;
78116;SDS011;69042;59.120;37.904;2023-05-29T01:33:40;16.52;;;5.90;;
78116;SDS011;69042;59.120;37.904;2023-05-29T01:36:09;21.70;;;5.63;;
78116;SDS011;69042;59.120;37.904;2023-05-29T01:38:36;21.00;;;5.85;;
78116;SDS011;69042;59.120;37.904;2023-05-29T01:41:03;25.92;;;7.95;;
78116;SDS011;69042;59.120;37.904;2023-05-29T01:43:29;21.35;;;6.72;;
78116;SDS011;69042;59.120;37.904;2023-05-29T01:45:57;18.98;;;6.70;;
78116;SDS011;69042;59.120;37.904;2023-05-29T01:48:23;20.33;;;7.03;;
78116;SDS011;69042;59.120;37.904;2023-05-29T01:50:50;25.98;;;6.90;;
78116;SDS011;69042;59.120;37.904;2023-05-29T01:53:16;22.20;;;6.57;;
78116;SDS011;69042;59.120;37.904;2023-05-29T01:55:42;25.50;;;6.80;;
78116;SDS011;69042;59.120;37.904;2023-05-29T01:58:09;26.63;;;7.60;;
78116;SDS011;69042;59.120;37.904;2023-05-29T02:00:37;19.17;;;6.47;;
78116;SDS011;69042;59.120;37.904;2023-05-29T02:03:03;25.45;;;6.75;;
78116;SDS011;69042;59.120;37.904;2023-05-29T02:05:30;23.65;;;6.53;;
78116;SDS011;69042;59.120;37.904;2023-05-29T02:07:56;20.58;;;6.70;;
78116;SDS011;69042;59.120;37.904;2023-05-29T02:10:22;19.00;;;6.32;;
78116;SDS011;69042;59.120;37.904;2023-05-29T02:12:48;17.77;;;5.35;;
78116;SDS011;69042;59.120;37.904;2023-05-29T02:15:14;20.10;;;6.55;;
78116;SDS011;69042;59.120;37.904;2023-05-29T02:17:40;17.67;;;6.50;;
78116;SDS011;69042;59.120;37.904;2023-05-29T02:20:07;19.00;;;5.50;;
78116;SDS011;69042;59.120;37.904;2023-05-29T02:22:33;21.60;;;6.07;;
78116;SDS011;69042;59.120;37.904;2023-05-29T02:24:59;19.20;;;5.15;;
78116;SDS011;69042;59.120;37.904;2023-05-29T02:27:26;18.65;;;4.50;;
78116;SDS011;69042;59.120;37.904;2023-05-29T02:29:52;16.60;;;4.15;;
78116;SDS011;69042;59.120;37.904;2023-05-29T02:32:18;13.07;;;4.35;;
78116;SDS011;69042;59.120;37.904;2023-05-29T02:34:44;14.73;;;4.30;;
78116;SDS011;69042;59.120;37.904;2023-05-29T02:37:12;16.55;;;4.63;;
78116;SDS011;69042;59.120;37.904;2023-05-29T02:39:38;20.92;;;4.85;;
78116;SDS011;69042;59.120;37.904;2023-05-29T02:42:05;15.35;;;5.28;;
78116;SDS011;69042;59.120;37.904;2023-05-29T02:44:32;16.40;;;5.38;;
78116;SDS011;69042;59.120;37.904;2023-05-29T02:46:58;14.85;;;6.10;;
78116;SDS011;69042;59.120;37.904;2023-05-29T02:49:24;18.20;;;6.03;;
78116;SDS011;69042;59.120;37.904;2023-05-29T02:51:50;13.75;;;6.18;;
78116;SDS011;69042;59.120;37.904;2023-05-29T02:54:25;16.52;;;6.68;;
78116;SDS011;69042;59.120;37.904;2023-05-29T02:56:51;15.63;;;5.63;;
78116;SDS011;69042;59.120;37.904;2023-05-29T02:59:17;13.32;;;4.57;;
78116;SDS011;69042;59.120;37.904;2023-05-29T03:01:44;11.02;;;3.95;;
78116;SDS011;69042;59.120;37.904;2023-05-29T03:04:11;13.75;;;3.92;;
78116;SDS011;69042;59.120;37.904;2023-05-29T03:06:38;8.07;;;3.20;;
78116;SDS011;69042;59.120;37.904;2023-05-29T03:09:06;9.38;;;3.08;;
78116;SDS011;69042;59.120;37.904;2023-05-29T03:11:32;12.65;;;4.18;;
78116;SDS011;69042;59.120;37.904;2023-05-29T03:13:59;10.85;;;3.28;;
78116;SDS011;69042;59.120;37.904;2023-05-29T03:16:25;11.98;;;3.67;;
78116;SDS011;69042;59.120;37.904;2023-05-29T03:18:55;11.93;;;3.08;;
78116;SDS011;69042;59.120;37.904;2023-05-29T03:21:21;6.65;;;2.75;;
78116;SDS011;69042;59.120;37.904;2023-05-29T03:23:47;6.65;;;2.55;;
78116;SDS011;69042;59.120;37.904;2023-05-29T03:26:13;9.10;;;2.92;;
78116;SDS011;69042;59.120;37.904;2023-05-29T03:28:41;6.53;;;2.90;;
78116;SDS011;69042;59.120;37.904;2023-05-29T03:31:08;6.20;;;2.63;;
78116;SDS011;69042;59.120;37.904;2023-05-29T03:33:38;6.93;;;2.80;;
78116;SDS011;69042;59.120;37.904;2023-05-29T03:36:17;6.10;;;2.65;;
78116;SDS011;69042;59.120;37.904;2023-05-29T03:38:43;6.57;;;3.10;;
78116;SDS011;69042;59.120;37.904;2023-05-29T03:41:09;5.97;;;2.63;;
78116;SDS011;69042;59.120;37.904;2023-05-29T03:43:37;5.63;;;2.63;;
78116;SDS011;69042;59.120;37.904;2023-05-29T03:46:03;6.43;;;2.55;;
78116;SDS011;69042;59.120;37.904;2023-05-29T03:48:30;10.10;;;3.03;;
78116;SDS011;69042;59.120;37.904;2023-05-29T03:50:57;6.55;;;2.50;;
78116;SDS011;69042;59.120;37.904;2023-05-29T03:53:31;6.40;;;2.45;;
78116;SDS011;69042;59.120;37.904;2023-05-29T03:55:58;6.53;;;2.53;;
78116;SDS011;69042;59.120;37.904;2023-05-29T03:58:24;6.55;;;2.30;;
78116;SDS011;69042;59.120;37.904;2023-05-29T04:00:50;7.93;;;2.88;;
78116;SDS011;69042;59.120;37.904;2023-05-29T04:03:18;5.97;;;3.15;;
78116;SDS011;69042;59.120;37.904;2023-05-29T04:05:45;5.82;;;3.15;;
78116;SDS011;69042;59.120;37.904;2023-05-29T04:08:12;8.50;;;3.17;;
78116;SDS011;69042;59.120;37.904;2023-05-29T04:10:39;5.07;;;2.40;;
78116;SDS011;69042;59.120;37.904;2023-05-29T04:13:05;6.60;;;2.83;;
78116;SDS011;69042;59.120;37.904;2023-05-29T04:15:32;9.32;;;2.70;;
78116;SDS011;69042;59.120;37.904;2023-05-29T04:18:01;7.78;;;3.15;;
78116;SDS011;69042;59.120;37.904;2023-05-29T04:20:27;6.65;;;2.50;;
78116;SDS011;69042;59.120;37.904;2023-05-29T04:22:53;8.45;;;2.53;;
78116;SDS011;69042;59.120;37.904;2023-05-29T04:25:20;7.88;;;2.80;;
78116;SDS011;69042;59.120;37.904;2023-05-29T04:27:46;6.18;;;2.90;;
78116;SDS011;69042;59.120;37.904;2023-05-29T04:30:17;7.88;;;2.55;;
78116;SDS011;69042;59.120;37.904;2023-05-29T04:32:46;7.90;;;2.42;;
78116;SDS011;69042;59.120;37.904;2023-05-29T04:35:12;6.80;;;2.25;;
78116;SDS011;69042;59.120;37.904;2023-05-29T04:37:45;4.82;;;2.30;;
78116;SDS011;69042;59.120;37.904;2023-05-29T04:40:13;6.10;;;2.00;;
78116;SDS011;69042;59.120;37.904;2023-05-29T04:42:44;7.80;;;1.95;;
78116;SDS011;69042;59.120;37.904;2023-05-29T04:45:14;4.95;;;1.90;;
78116;SDS011;69042;59.120;37.904;2023-05-29T04:47:40;6.47;;;1.95;;
78116;SDS011;69042;59.120;37.904;2023-05-29T04:50:11;4.75;;;1.75;;
78116;SDS011;69042;59.120;37.904;2023-05-29T04:52:39;4.53;;;2.22;;
78116;SDS011;69042;59.120;37.904;2023-05-29T04:55:08;4.95;;;2.38;;
78116;SDS011;69042;59.120;37.904;2023-05-29T04:57:34;5.25;;;1.80;;
78116;SDS011;69042;59.120;37.904;2023-05-29T05:00:00;5.35;;;2.40;;
78116;SDS011;69042;59.120;37.904;2023-05-29T05:02:30;5.63;;;2.35;;
78116;SDS011;69042;59.120;37.904;2023-05-29T05:04:57;4.18;;;1.80;;
78116;SDS011;69042;59.120;37.904;2023-05-29T05:07:24;4.45;;;1.70;;
78116;SDS011;69042;59.120;37.904;2023-05-29T05:09:51;4.85;;;2.20;;
78116;SDS011;69042;59.120;37.904;2023-05-29T05:12:21;5.35;;;1.77;;
78116;SDS011;69042;59.120;37.904;2023-05-29T05:14:47;5.18;;;1.80;;
78116;SDS011;69042;59.120;37.904;2023-05-29T05:17:13;5.32;;;1.80;;
78116;SDS011;69042;59.120;37.904;2023-05-29T05:19:41;3.60;;;1.48;;
78116;SDS011;69042;59.120;37.904;2023-05-29T05:22:07;4.18;;;1.60;;
78116;SDS011;69042;59.120;37.904;2023-05-29T05:24:33;3.97;;;1.40;;
78116;SDS011;69042;59.120;37.904;2023-05-29T05:27:03;7.15;;;2.90;;
78116;SDS011;69042;59.120;37.904;2023-05-29T05:29:30;8.10;;;2.08;;
78116;SDS011;69042;59.120;37.904;2023-05-29T05:31:57;5.47;;;1.50;;
78116;SDS011;69042;59.120;37.904;2023-05-29T05:34:23;4.10;;;1.50;;
78116;SDS011;69042;59.120;37.904;2023-05-29T05:36:50;5.10;;;2.63;;
78116;SDS011;69042;59.120;37.904;2023-05-29T05:39:17;5.28;;;1.52;;
78116;SDS011;69042;59.120;37.904;2023-05-29T05:41:46;5.65;;;1.52;;
78116;SDS011;69042;59.120;37.904;2023-05-29T05:44:17;4.65;;;1.73;;
78116;SDS011;69042;59.120;37.904;2023-05-29T05:46:49;3.90;;;1.50;;
78116;SDS011;69042;59.120;37.904;2023-05-29T05:49:16;3.65;;;1.33;;
78116;SDS011;69042;59.120;37.904;2023-05-29T05:51:43;5.40;;;1.50;;
78116;SDS011;69042;59.120;37.904;2023-05-29T05:54:09;5.25;;;1.70;;
78116;SDS011;69042;59.120;37.904;2023-05-29T05:56:35;6.88;;;2.03;;
78116;SDS011;69042;59.120;37.904;2023-05-29T05:59:01;4.28;;;1.42;;
78116;SDS011;69042;59.120;37.904;2023-05-29T06:01:27;3.60;;;1.30;;
78116;SDS011;69042;59.120;37.904;2023-05-29T06:03:54;4.60;;;1.50;;
78116;SDS011;69042;59.120;37.904;2023-05-29T06:06:20;4.85;;;1.65;;
78116;SDS011;69042;59.120;37.904;2023-05-29T06:08:48;4.05;;;1.55;;
78116;SDS011;69042;59.120;37.904;2023-05-29T06:11:15;3.75;;;1.38;;
78116;SDS011;69042;59.120;37.904;2023-05-29T06:13:44;6.88;;;1.90;;
78116;SDS011;69042;59.120;37.904;2023-05-29T06:16:18;6.63;;;1.98;;
78116;SDS011;69042;59.120;37.904;2023-05-29T06:18:44;7.03;;;1.40;;
78116;SDS011;69042;59.120;37.904;2023-05-29T06:21:11;4.43;;;1.50;;
78116;SDS011;69042;59.120;37.904;2023-05-29T06:23:43;6.35;;;1.50;;
78116;SDS011;69042;59.120;37.904;2023-05-29T06:26:11;6.30;;;1.30;;
78116;SDS011;69042;59.120;37.904;2023-05-29T06:28:38;4.45;;;1.30;;
78116;SDS011;69042;59.120;37.904;2023-05-29T06:31:04;4.55;;;1.20;;
78116;SDS011;69042;59.120;37.904;2023-05-29T06:33:31;5.22;;;1.42;;
78116;SDS011;69042;59.120;37.904;2023-05-29T06:35:58;6.75;;;1.60;;
78116;SDS011;69042;59.120;37.904;2023-05-29T06:38:24;4.03;;;1.23;;
78116;SDS011;69042;59.120;37.904;2023-05-29T06:40:51;4.72;;;1.60;;
78116;SDS011;69042;59.120;37.904;2023-05-29T06:43:17;3.40;;;1.27;;
78116;SDS011;69042;59.120;37.904;2023-05-29T06:45:47;4.05;;;1.40;;
78116;SDS011;69042;59.120;37.904;2023-05-29T06:48:13;7.78;;;2.15;;
78116;SDS011;69042;59.120;37.904;2023-05-29T06:50:41;5.40;;;1.40;;
78116;SDS011;69042;59.120;37.904;2023-05-29T06:53:25;4.15;;;1.15;;
78116;SDS011;69042;59.120;37.904;2023-05-29T06:55:54;4.28;;;1.40;;
78116;SDS011;69042;59.120;37.904;2023-05-29T06:58:20;6.75;;;2.05;;
78116;SDS011;69042;59.120;37.904;2023-05-29T07:00:47;5.18;;;1.35;;
78116;SDS011;69042;59.120;37.904;2023-05-29T07:03:26;3.95;;;1.38;;
78116;SDS011;69042;59.120;37.904;2023-05-29T07:05:53;4.55;;;1.75;;
78116;SDS011;69042;59.120;37.904;2023-05-29T07:08:19;5.97;;;1.52;;
78116;SDS011;69042;59.120;37.904;2023-05-29T07:10:46;6.32;;;1.95;;
78116;SDS011;69042;59.120;37.904;2023-05-29T07:13:14;4.45;;;1.45;;
78116;SDS011;69042;59.120;37.904;2023-05-29T07:15:42;4.95;;;1.50;;
78116;SDS011;69042;59.120;37.904;2023-05-29T07:18:09;5.30;;;1.60;;
78116;SDS011;69042;59.120;37.904;2023-05-29T07:20:38;5.93;;;1.55;;
78116;SDS011;69042;59.120;37.904;2023-05-29T07:23:04;4.97;;;1.40;;
78116;SDS011;69042;59.120;37.904;2023-05-29T07:25:31;3.67;;;1.67;;
78116;SDS011;69042;59.120;37.904;2023-05-29T07:27:58;3.60;;;1.27;;
78116;SDS011;69042;59.120;37.904;2023-05-29T07:30:24;6.30;;;1.50;;
78116;SDS011;69042;59.120;37.904;2023-05-29T07:35:19;4.20;;;1.30;;
78116;SDS011;69042;59.120;37.904;2023-05-29T07:37:47;4.50;;;1.58;;
78116;SDS011;69042;59.120;37.904;2023-05-29T07:40:16;4.05;;;1.17;;
78116;SDS011;69042;59.120;37.904;2023-05-29T07:43:06;4.00;;;1.42;;
78116;SDS011;69042;59.120;37.904;2023-05-29T07:45:54;4.20;;;1.40;;
78116;SDS011;69042;59.120;37.904;2023-05-29T07:48:21;3.70;;;1.20;;
78116;SDS011;69042;59.120;37.904;2023-05-29T07:50:48;5.82;;;1.52;;
78116;SDS011;69042;59.120;37.904;2023-05-29T07:53:15;3.45;;;1.30;;
78116;SDS011;69042;59.120;37.904;2023-05-29T07:55:41;4.22;;;1.33;;
78116;SDS011;69042;59.120;37.904;2023-05-29T07:58:07;4.35;;;1.40;;
78116;SDS011;69042;59.120;37.904;2023-05-29T08:00:35;3.75;;;1.00;;
78116;SDS011;69042;59.120;37.904;2023-05-29T08:03:03;3.45;;;1.33;;
78116;SDS011;69042;59.120;37.904;2023-05-29T08:05:29;4.22;;;1.40;;
78116;SDS011;69042;59.120;37.904;2023-05-29T08:08:05;5.68;;;1.50;;
78116;SDS011;69042;59.120;37.904;2023-05-29T08:10:32;4.60;;;1.90;;
78116;SDS011;69042;59.120;37.904;2023-05-29T08:12:59;4.22;;;1.13;;
78116;SDS011;69042;59.120;37.904;2023-05-29T08:15:25;9.57;;;1.80;;
78116;SDS011;69042;59.120;37.904;2023-05-29T08:17:52;3.83;;;1.13;;
78116;SDS011;69042;59.120;37.904;2023-05-29T08:20:18;3.75;;;1.88;;
78116;SDS011;69042;59.120;37.904;2023-05-29T08:22:44;4.20;;;1.48;;
78116;SDS011;69042;59.120;37.904;2023-05-29T08:25:11;4.65;;;1.23;;
78116;SDS011;69042;59.120;37.904;2023-05-29T08:27:37;3.35;;;1.30;;
78116;SDS011;69042;59.120;37.904;2023-05-29T08:30:03;4.95;;;1.30;;
78116;SDS011;69042;59.120;37.904;2023-05-29T08:32:29;3.80;;;1.30;;
78116;SDS011;69042;59.120;37.904;2023-05-29T08:34:56;2.83;;;0.93;;
78116;SDS011;69042;59.120;37.904;2023-05-29T08:37:22;6.82;;;1.45;;
78116;SDS011;69042;59.120;37.904;2023-05-29T08:39:48;3.85;;;1.48;;
78116;SDS011;69042;59.120;37.904;2023-05-29T08:42:18;3.92;;;1.33;;
78116;SDS011;69042;59.120;37.904;2023-05-29T08:44:48;4.68;;;1.63;;
78116;SDS011;69042;59.120;37.904;2023-05-29T08:47:15;6.35;;;1.75;;
78116;SDS011;69042;59.120;37.904;2023-05-29T08:49:49;4.75;;;1.25;;
78116;SDS011;69042;59.120;37.904;2023-05-29T08:52:19;6.32;;;1.70;;
78116;SDS011;69042;59.120;37.904;2023-05-29T08:54:47;4.13;;;1.20;;
78116;SDS011;69042;59.120;37.904;2023-05-29T08:57:14;4.60;;;1.30;;
78116;SDS011;69042;59.120;37.904;2023-05-29T08:59:43;5.10;;;1.38;;
78116;SDS011;69042;59.120;37.904;2023-05-29T09:02:14;4.95;;;1.40;;
78116;SDS011;69042;59.120;37.904;2023-05-29T09:04:41;3.75;;;1.42;;
78116;SDS011;69042;59.120;37.904;2023-05-29T09:07:11;3.78;;;1.42;;
78116;SDS011;69042;59.120;37.904;2023-05-29T09:09:38;5.47;;;1.50;;
78116;SDS011;69042;59.120;37.904;2023-05-29T09:12:04;4.53;;;1.20;;
78116;SDS011;69042;59.120;37.904;2023-05-29T09:14:34;3.60;;;1.30;;
78116;SDS011;69042;59.120;37.904;2023-05-29T09:17:02;3.60;;;1.25;;
78116;SDS011;69042;59.120;37.904;2023-05-29T09:19:32;3.88;;;1.30;;
78116;SDS011;69042;59.120;37.904;2023-05-29T09:22:03;3.72;;;1.38;;
78116;SDS011;69042;59.120;37.904;2023-05-29T09:24:31;3.75;;;1.30;;
78116;SDS011;69042;59.120;37.904;2023-05-29T09:26:58;4.13;;;1.40;;
78116;SDS011;69042;59.120;37.904;2023-05-29T09:29:25;3.50;;;1.42;;
78116;SDS011;69042;59.120;37.904;2023-05-29T09:31:51;3.50;;;1.50;;
78116;SDS011;69042;59.120;37.904;2023-05-29T09:34:18;4.07;;;1.30;;
78116;SDS011;69042;59.120;37.904;2023-05-29T09:36:44;4.25;;;1.48;;
78116;SDS011;69042;59.120;37.904;2023-05-29T09:39:10;3.35;;;1.13;;
78116;SDS011;69042;59.120;37.904;2023-05-29T09:41:43;4.75;;;1.30;;
78116;SDS011;69042;59.120;37.904;2023-05-29T09:44:14;5.03;;;1.40;;
78116;SDS011;69042;59.120;37.904;2023-05-29T09:46:41;3.65;;;1.60;;
78116;SDS011;69042;59.120;37.904;2023-05-29T09:49:12;5.22;;;1.42;;
78116;SDS011;69042;59.120;37.904;2023-05-29T09:51:39;4.25;;;1.33;;
78116;SDS011;69042;59.120;37.904;2023-05-29T09:54:18;6.95;;;1.30;;
78116;SDS011;69042;59.120;37.904;2023-05-29T09:56:44;3.55;;;1.20;;
78116;SDS011;69042;59.120;37.904;2023-05-29T09:59:12;4.53;;;1.58;;
78116;SDS011;69042;59.120;37.904;2023-05-29T10:01:39;4.10;;;1.50;;
78116;SDS011;69042;59.120;37.904;2023-05-29T10:04:10;4.20;;;1.60;;
78116;SDS011;69042;59.120;37.904;2023-05-29T10:06:37;5.93;;;1.80;;
78116;SDS011;69042;59.120;37.904;2023-05-29T10:09:08;3.78;;;1.33;;
78116;SDS011;69042;59.120;37.904;2023-05-29T10:11:37;3.88;;;1.45;;
78116;SDS011;69042;59.120;37.904;2023-05-29T10:14:06;4.50;;;1.50;;
78116;SDS011;69042;59.120;37.904;2023-05-29T10:16:41;3.47;;;1.40;;
78116;SDS011;69042;59.120;37.904;2023-05-29T10:19:11;4.25;;;1.38;;
78116;SDS011;69042;59.120;37.904;2023-05-29T10:21:40;4.47;;;1.38;;
78116;SDS011;69042;59.120;37.904;2023-05-29T10:24:07;4.30;;;1.50;;
78116;SDS011;69042;59.120;37.904;2023-05-29T10:26:40;3.50;;;1.20;;
78116;SDS011;69042;59.120;37.904;2023-05-29T10:38:16;4.60;;;1.80;;
78116;SDS011;69042;59.120;37.904;2023-05-29T10:40:44;4.03;;;1.23;;
78116;SDS011;69042;59.120;37.904;2023-05-29T10:43:30;5.32;;;1.30;;
78116;SDS011;69042;59.120;37.904;2023-05-29T10:45:58;4.72;;;1.42;;
78116;SDS011;69042;59.120;37.904;2023-05-29T10:50:54;5.22;;;1.48;;
78116;SDS011;69042;59.120;37.904;2023-05-29T10:53:25;3.75;;;1.45;;
78116;SDS011;69042;59.120;37.904;2023-05-29T10:55:52;4.03;;;1.50;;
78116;SDS011;69042;59.120;37.904;2023-05-29T10:58:20;3.88;;;1.20;;
78116;SDS011;69042;59.120;37.904;2023-05-29T11:00:46;4.10;;;1.40;;
78116;SDS011;69042;59.120;37.904;2023-05-29T11:03:20;4.05;;;1.35;;
78116;SDS011;69042;59.120;37.904;2023-05-29T11:05:58;6.78;;;1.50;;
78116;SDS011;69042;59.120;37.904;2023-05-29T11:11:13;5.10;;;1.48;;
78116;SDS011;69042;59.120;37.904;2023-05-29T11:14:04;11.50;;;4.65;;
78116;SDS011;69042;59.120;37.904;2023-05-29T11:18:58;4.32;;;1.45;;
78116;SDS011;69042;59.120;37.904;2023-05-29T11:26:50;4.55;;;1.80;;
78116;SDS011;69042;59.120;37.904;2023-05-29T11:29:26;5.03;;;1.65;;
78116;SDS011;69042;59.120;37.904;2023-05-29T11:32:04;3.80;;;1.50;;
78116;SDS011;69042;59.120;37.904;2023-05-29T11:34:32;5.30;;;1.40;;
78116;SDS011;69042;59.120;37.904;2023-05-29T11:36:58;7.43;;;2.03;;
78116;SDS011;69042;59.120;37.904;2023-05-29T11:39:25;5.25;;;1.77;;
78116;SDS011;69042;59.120;37.904;2023-05-29T11:41:52;4.43;;;1.52;;
78116;SDS011;69042;59.120;37.904;2023-05-29T11:44:19;3.58;;;1.40;;
78116;SDS011;69042;59.120;37.904;2023-05-29T11:46:45;4.80;;;1.52;;
78116;SDS011;69042;59.120;37.904;2023-05-29T11:49:12;4.35;;;1.83;;
78116;SDS011;69042;59.120;37.904;2023-05-29T11:51:41;4.03;;;1.42;;
78116;SDS011;69042;59.120;37.904;2023-05-29T11:54:07;3.80;;;1.50;;
78116;SDS011;69042;59.120;37.904;2023-05-29T11:56:33;5.97;;;1.77;;
78116;SDS011;69042;59.120;37.904;2023-05-29T11:58:59;5.10;;;1.98;;
78116;SDS011;69042;59.120;37.904;2023-05-29T12:01:27;6.63;;;1.60;;
78116;SDS011;69042;59.120;37.904;2023-05-29T12:03:54;3.95;;;1.50;;
78116;SDS011;69042;59.120;37.904;2023-05-29T12:06:32;4.50;;;1.60;;
78116;SDS011;69042;59.120;37.904;2023-05-29T12:09:00;5.03;;;1.90;;
78116;SDS011;69042;59.120;37.904;2023-05-29T12:11:28;6.03;;;1.77;;
78116;SDS011;69042;59.120;37.904;2023-05-29T12:13:55;4.13;;;1.65;;
78116;SDS011;69042;59.120;37.904;2023-05-29T12:16:22;4.10;;;1.50;;
78116;SDS011;69042;59.120;37.904;2023-05-29T12:18:49;6.55;;;1.70;;
78116;SDS011;69042;59.120;37.904;2023-05-29T12:21:15;4.47;;;1.70;;
78116;SDS011;69042;59.120;37.904;2023-05-29T12:23:46;4.70;;;1.90;;
78116;SDS011;69042;59.120;37.904;2023-05-29T12:26:12;4.57;;;1.45;;
78116;SDS011;69042;59.120;37.904;2023-05-29T12:28:44;6.35;;;1.90;;
78116;SDS011;69042;59.120;37.904;2023-05-29T12:31:11;4.35;;;1.60;;
78116;SDS011;69042;59.120;37.904;2023-05-29T12:33:40;3.67;;;1.50;;
78116;SDS011;69042;59.120;37.904;2023-05-29T12:36:09;5.72;;;1.70;;
78116;SDS011;69042;59.120;37.904;2023-05-29T12:38:47;6.55;;;1.73;;
78116;SDS011;69042;59.120;37.904;2023-05-29T12:41:48;5.47;;;1.83;;
78116;SDS011;69042;59.120;37.904;2023-05-29T12:44:08;6.57;;;1.92;;
78116;SDS011;69042;59.120;37.904;2023-05-29T12:46:41;7.82;;;1.55;;
78116;SDS011;69042;59.120;37.904;2023-05-29T12:49:15;7.28;;;1.70;;
78116;SDS011;69042;59.120;37.904;2023-05-29T12:51:43;5.03;;;1.60;;
78116;SDS011;69042;59.120;37.904;2023-05-29T12:54:13;4.35;;;1.60;;
78116;SDS011;69042;59.120;37.904;2023-05-29T12:56:40;7.65;;;2.65;;
78116;SDS011;69042;59.120;37.904;2023-05-29T12:59:07;5.22;;;1.60;;
78116;SDS011;69042;59.120;37.904;2023-05-29T13:01:34;7.30;;;3.17;;
78116;SDS011;69042;59.120;37.904;2023-05-29T13:04:01;7.18;;;1.88;;
78116;SDS011;69042;59.120;37.904;2023-05-29T13:08:56;6.65;;;2.10;;
78116;SDS011;69042;59.120;37.904;2023-05-29T13:11:22;5.10;;;1.85;;
78116;SDS011;69042;59.120;37.904;2023-05-29T13:13:48;7.25;;;1.70;;
78116;SDS011;69042;59.120;37.904;2023-05-29T13:16:15;6.40;;;1.83;;
78116;SDS011;69042;59.120;37.904;2023-05-29T13:18:43;6.28;;;2.05;;
78116;SDS011;69042;59.120;37.904;2023-05-29T13:21:09;4.78;;;1.98;;
78116;SDS011;69042;59.120;37.904;2023-05-29T13:23:36;7.97;;;1.88;;
78116;SDS011;69042;59.120;37.904;2023-05-29T13:26:03;4.80;;;1.67;;
78116;SDS011;69042;59.120;37.904;2023-05-29T13:28:30;6.25;;;2.00;;
78116;SDS011;69042;59.120;37.904;2023-05-29T13:30:56;10.35;;;2.80;;
78116;SDS011;69042;59.120;37.904;2023-05-29T13:33:22;8.70;;;3.60;;
78116;SDS011;69042;59.120;37.904;2023-05-29T13:35:48;6.18;;;2.00;;
78116;SDS011;69042;59.120;37.904;2023-05-29T13:38:14;5.93;;;1.67;;
78116;SDS011;69042;59.120;37.904;2023-05-29T13:40:40;4.82;;;2.03;;
78116;SDS011;69042;59.120;37.904;2023-05-29T13:43:06;7.97;;;2.35;;
78116;SDS011;69042;59.120;37.904;2023-05-29T13:45:33;8.82;;;2.53;;
78116;SDS011;69042;59.120;37.904;2023-05-29T13:47:59;4.93;;;1.73;;
78116;SDS011;69042;59.120;37.904;2023-05-29T13:50:25;9.07;;;2.17;;
78116;SDS011;69042;59.120;37.904;2023-05-29T13:52:51;7.10;;;2.20;;
78116;SDS011;69042;59.120;37.904;2023-05-29T13:55:17;6.82;;;2.03;;
78116;SDS011;69042;59.120;37.904;2023-05-29T13:57:43;5.20;;;1.67;;
78116;SDS011;69042;59.120;37.904;2023-05-29T14:00:10;5.70;;;1.77;;
78116;SDS011;69042;59.120;37.904;2023-05-29T14:02:37;6.13;;;2.10;;
78116;SDS011;69042;59.120;37.904;2023-05-29T14:05:03;5.50;;;1.88;;
78116;SDS011;69042;59.120;37.904;2023-05-29T14:07:31;5.45;;;2.38;;
78116;SDS011;69042;59.120;37.904;2023-05-29T14:09:57;6.70;;;2.20;;
78116;SDS011;69042;59.120;37.904;2023-05-29T14:12:24;5.05;;;1.95;;
78116;SDS011;69042;59.120;37.904;2023-05-29T14:14:50;5.38;;;1.98;;
78116;SDS011;69042;59.120;37.904;2023-05-29T14:17:17;7.40;;;1.92;;
78116;SDS011;69042;59.120;37.904;2023-05-29T14:19:43;6.65;;;2.35;;
78116;SDS011;69042;59.120;37.904;2023-05-29T14:22:13;5.95;;;2.20;;
78116;SDS011;69042;59.120;37.904;2023-05-29T14:24:39;5.28;;;2.20;;
78116;SDS011;69042;59.120;37.904;2023-05-29T14:27:06;9.40;;;2.55;;
78116;SDS011;69042;59.120;37.904;2023-05-29T14:29:32;4.90;;;1.98;;
78116;SDS011;69042;59.120;37.904;2023-05-29T14:31:58;7.22;;;2.30;;
78116;SDS011;69042;59.120;37.904;2023-05-29T14:34:25;5.07;;;2.10;;
78116;SDS011;69042;59.120;37.904;2023-05-29T14:36:51;6.45;;;2.17;;
78116;SDS011;69042;59.120;37.904;2023-05-29T14:39:17;7.10;;;2.30;;
78116;SDS011;69042;59.120;37.904;2023-05-29T14:41:43;5.47;;;2.30;;
78116;SDS011;69042;59.120;37.904;2023-05-29T14:44:09;5.85;;;2.58;;
78116;SDS011;69042;59.120;37.904;2023-05-29T14:46:37;6.65;;;2.30;;
78116;SDS011;69042;59.120;37.904;2023-05-29T14:49:03;6.95;;;2.33;;
78116;SDS011;69042;59.120;37.904;2023-05-29T14:51:31;6.10;;;2.55;;
78116;SDS011;69042;59.120;37.904;2023-05-29T14:53:59;8.63;;;2.60;;
78116;SDS011;69042;59.120;37.904;2023-05-29T14:56:25;6.78;;;2.83;;
78116;SDS011;69042;59.120;37.904;2023-05-29T14:58:52;7.43;;;2.78;;
78116;SDS011;69042;59.120;37.904;2023-05-29T15:01:19;8.38;;;2.40;;
78116;SDS011;69042;59.120;37.904;2023-05-29T15:03:45;6.13;;;2.63;;
78116;SDS011;69042;59.120;37.904;2023-05-29T15:06:12;9.23;;;2.70;;
78116;SDS011;69042;59.120;37.904;2023-05-29T15:08:41;5.45;;;2.50;;
78116;SDS011;69042;59.120;37.904;2023-05-29T15:11:08;5.15;;;2.30;;
78116;SDS011;69042;59.120;37.904;2023-05-29T15:13:35;6.43;;;2.80;;
78116;SDS011;69042;59.120;37.904;2023-05-29T15:16:01;5.32;;;2.33;;